Time;durP1;ratioP1;P1;durP2;ratioP2;P2;SDS_P1;SDS_P2;PMS_P1;PMS_P2;Temp;Humidity;BMP_temperature;BMP_pressure;BME280_temperature;BME280_humidity;BME280_pressure;Samples;Min_cycle;Max_cycle;Signal;HPM_P1;HPM_P2
2021/06/16 00:02:18;;;;;;;14.85;12.25;;;18.40;99.90;;;;;;5051938;28;20100;-69
2021/06/16 00:04:43;;;;;;;16.27;12.18;;;18.30;99.90;;;;;;5051772;28;20021;-69
2021/06/16 00:07:09;;;;;;;15.88;12.55;;;18.30;99.90;;;;;;5051732;28;20032;-69
2021/06/16 00:09:35;;;;;;;17.15;12.10;;;18.30;99.90;;;;;;5051565;28;20025;-68
2021/06/16 00:12:01;;;;;;;17.95;12.07;;;18.30;99.90;;;;;;5051727;28;20029;-69
2021/06/16 00:14:27;;;;;;;17.00;12.57;;;18.30;99.90;;;;;;5051771;28;20036;-69
2021/06/16 00:16:52;;;;;;;18.02;12.23;;;18.20;99.90;;;;;;5033719;28;20075;-68
2021/06/16 00:19:18;;;;;;;16.75;12.38;;;18.30;99.90;;;;;;5051459;28;20725;-69
2021/06/16 00:21:44;;;;;;;15.57;12.13;;;18.30;99.90;;;;;;5051715;28;20475;-69
2021/06/16 00:24:09;;;;;;;17.08;11.63;;;18.30;99.90;;;;;;5051700;28;20364;-68
2021/06/16 00:26:35;;;;;;;15.75;12.02;;;18.30;99.90;;;;;;5051444;28;20511;-69
2021/06/16 00:29:01;;;;;;;14.80;11.57;;;18.30;99.90;;;;;;5051457;28;20450;-69
2021/06/16 00:31:27;;;;;;;15.52;11.93;;;18.30;99.90;;;;;;5033781;28;20036;-69
2021/06/16 00:33:53;;;;;;;16.33;11.55;;;18.30;99.90;;;;;;5051560;28;20111;-69
2021/06/16 00:36:18;;;;;;;15.90;11.55;;;18.20;99.90;;;;;;5051364;28;20116;-69
2021/06/16 00:38:44;;;;;;;16.15;12.30;;;18.20;99.90;;;;;;5033575;28;20039;-69
2021/06/16 00:41:10;;;;;;;18.10;12.40;;;18.20;99.90;;;;;;5051339;28;20025;-69
2021/06/16 00:43:36;;;;;;;17.50;12.20;;;18.20;99.90;;;;;;5051472;28;20037;-69
2021/06/16 00:46:01;;;;;;;16.30;12.23;;;18.20;99.90;;;;;;5051446;28;20036;-69
2021/06/16 00:48:27;;;;;;;15.88;12.32;;;18.00;99.90;;;;;;5033503;28;20550;-69
2021/06/16 00:50:53;;;;;;;16.65;13.25;;;18.00;99.90;;;;;;5033287;28;20394;-69
2021/06/16 00:53:18;;;;;;;19.52;12.82;;;17.80;99.90;;;;;;5051600;28;20040;-68
2021/06/16 00:55:44;;;;;;;18.92;12.43;;;17.70;99.90;;;;;;5051460;28;20029;-69
2021/06/16 00:58:11;;;;;;;16.92;13.25;;;17.70;99.90;;;;;;5054515;28;20025;-69
2021/06/16 01:00:47;;;;;;;15.45;12.73;;;17.70;99.90;;;;;;5054913;28;20025;-69
2021/06/16 01:03:25;;;;;;;16.25;12.82;;;17.70;99.90;;;;;;5053874;28;20482;-68
2021/06/16 01:05:59;;;;;;;17.63;13.13;;;17.60;99.90;;;;;;5055305;28;20032;-69
2021/06/16 01:08:32;;;;;;;15.35;12.02;;;17.60;99.90;;;;;;5055202;28;20036;-69
2021/06/16 01:11:02;;;;;;;20.63;12.18;;;17.60;99.90;;;;;;5036899;28;20036;-69
2021/06/16 01:13:31;;;;;;;17.10;12.52;;;17.70;99.90;;;;;;5054957;28;20021;-69
2021/06/16 01:16:02;;;;;;;18.50;13.30;;;17.80;99.90;;;;;;5054778;28;20025;-69
2021/06/16 01:18:30;;;;;;;18.08;13.10;;;17.70;99.90;;;;;;5054964;28;20025;-69
2021/06/16 01:20:58;;;;;;;17.35;13.43;;;17.70;99.90;;;;;;5054591;28;20098;-69
2021/06/16 01:23:55;;;;;;;18.77;12.82;;;17.60;99.90;;;;;;5036866;28;20017;-69
2021/06/16 01:26:27;;;;;;;16.02;12.85;;;17.60;99.90;;;;;;5064569;22;20041;-71
2021/06/16 01:28:57;;;;;;;14.68;12.18;;;17.60;99.90;;;;;;4994379;28;20038;-70
2021/06/16 01:31:25;;;;;;;17.75;12.77;;;17.60;99.90;;;;;;4995324;28;20046;-71
2021/06/16 01:33:51;;;;;;;17.38;12.73;;;17.60;99.90;;;;;;4995214;28;20085;-71
2021/06/16 01:36:17;;;;;;;17.17;12.45;;;17.60;99.90;;;;;;4995121;28;20038;-71
2021/06/16 01:38:44;;;;;;;16.33;13.27;;;17.60;99.90;;;;;;4995039;28;20388;-71
2021/06/16 01:41:10;;;;;;;18.50;13.20;;;17.50;99.90;;;;;;4994835;28;20027;-71
2021/06/16 01:43:36;;;;;;;18.63;13.07;;;17.50;99.90;;;;;;4993815;28;20457;-71
2021/06/16 01:46:03;;;;;;;16.92;12.35;;;17.40;99.90;;;;;;4995120;28;20030;-71
2021/06/16 01:48:29;;;;;;;20.00;13.77;;;17.40;99.90;;;;;;4994996;28;20486;-71
2021/06/16 01:50:56;;;;;;;17.42;12.93;;;17.30;99.90;;;;;;4994710;28;20415;-71
2021/06/16 01:53:23;;;;;;;15.50;12.05;;;17.30;99.90;;;;;;4994844;28;20099;-71
2021/06/16 01:55:49;;;;;;;18.13;12.30;;;17.30;99.90;;;;;;4977280;28;20061;-71
2021/06/16 01:58:17;;;;;;;16.83;12.95;;;17.30;99.90;;;;;;4994591;28;20477;-71
2021/06/16 02:00:43;;;;;;;16.67;12.57;;;17.30;99.90;;;;;;4994423;28;20076;-71
2021/06/16 02:03:10;;;;;;;20.02;13.02;;;17.30;99.90;;;;;;4994708;28;20054;-71
2021/06/16 02:05:36;;;;;;;17.65;12.82;;;17.30;99.90;;;;;;4993430;28;20026;-71
2021/06/16 02:08:05;;;;;;;17.10;12.85;;;17.30;99.90;;;;;;4994146;28;20394;-71
2021/06/16 02:10:37;;;;;;;20.00;12.85;;;17.20;99.90;;;;;;4976693;28;20038;-71
2021/06/16 02:13:06;;;;;;;17.67;12.57;;;17.30;99.90;;;;;;4994806;28;20042;-70
2021/06/16 02:15:39;;;;;;;16.92;12.73;;;17.20;99.90;;;;;;4994448;28;20027;-71
2021/06/16 02:18:06;;;;;;;16.92;12.85;;;17.10;99.90;;;;;;4994367;28;20495;-71
2021/06/16 02:20:32;;;;;;;15.73;12.80;;;17.10;99.90;;;;;;4994154;28;20026;-71
2021/06/16 02:22:58;;;;;;;20.67;12.88;;;17.00;99.90;;;;;;4994607;28;20481;-71
2021/06/16 02:25:23;;;;;;;21.25;14.18;;;17.00;99.90;;;;;;4994464;28;20485;-71
2021/06/16 02:27:49;;;;;;;18.13;13.15;;;16.90;99.90;;;;;;4976732;28;20105;-71
2021/06/16 02:30:16;;;;;;;16.63;13.00;;;16.90;99.90;;;;;;4976545;28;20037;-71
2021/06/16 02:32:42;;;;;;;17.63;13.07;;;16.90;99.90;;;;;;4994107;28;20030;-71
2021/06/16 02:35:08;;;;;;;19.50;13.15;;;16.80;99.90;;;;;;4976724;28;20050;-71
2021/06/16 02:37:38;;;;;;;16.60;13.07;;;16.80;99.90;;;;;;4994017;28;20113;-71
2021/06/16 02:40:11;;;;;;;16.75;12.25;;;16.90;99.90;;;;;;4993749;28;20026;-70
2021/06/16 02:42:39;;;;;;;19.92;13.55;;;16.90;99.90;;;;;;4994089;28;20058;-70
2021/06/16 02:45:07;;;;;;;18.80;13.30;;;17.00;99.90;;;;;;4992471;28;20019;-70
2021/06/16 02:47:34;;;;;;;18.38;13.40;;;17.00;99.90;;;;;;4993641;28;20023;-71
2021/06/16 02:50:02;;;;;;;18.58;13.20;;;17.00;99.90;;;;;;4993591;28;20019;-71
2021/06/16 02:52:29;;;;;;;23.02;14.43;;;17.00;99.90;;;;;;4993818;28;20026;-71
2021/06/16 02:55:02;;;;;;;15.95;12.80;;;16.90;99.90;;;;;;4992569;28;20023;-70
2021/06/16 02:57:30;;;;;;;18.10;13.20;;;17.00;99.90;;;;;;4993541;28;20022;-71
2021/06/16 02:59:56;;;;;;;18.08;13.20;;;17.00;99.90;;;;;;4975801;28;20105;-71
2021/06/16 03:02:24;;;;;;;16.55;12.52;;;17.00;99.90;;;;;;4994025;28;20045;-71
2021/06/16 03:04:50;;;;;;;20.65;13.93;;;17.00;99.90;;;;;;4993549;28;20042;-71
2021/06/16 03:07:17;;;;;;;20.95;14.02;;;16.90;99.90;;;;;;4993420;28;20026;-71
2021/06/16 03:09:44;;;;;;;20.23;12.63;;;16.80;99.90;;;;;;4993217;28;20061;-70
2021/06/16 03:12:11;;;;;;;17.08;13.85;;;16.80;99.90;;;;;;4993402;28;20030;-71
2021/06/16 03:14:37;;;;;;;19.63;13.15;;;16.80;99.90;;;;;;4993318;28;20027;-71
2021/06/16 03:17:04;;;;;;;18.63;13.38;;;16.80;99.90;;;;;;4993508;28;20026;-71
2021/06/16 03:19:30;;;;;;;21.02;12.55;;;16.80;99.90;;;;;;4992792;28;20143;-71
2021/06/16 03:21:57;;;;;;;18.83;13.13;;;16.80;99.90;;;;;;4993290;28;20486;-71
2021/06/16 03:24:24;;;;;;;19.38;13.07;;;16.70;99.90;;;;;;4993212;28;20049;-71
2021/06/16 03:26:50;;;;;;;17.08;12.40;;;16.70;99.90;;;;;;4975543;28;20069;-71
2021/06/16 03:29:18;;;;;;;19.50;13.00;;;16.70;99.90;;;;;;4992717;28;20035;-70
2021/06/16 03:31:46;;;;;;;21.00;14.18;;;16.50;99.90;;;;;;4975685;28;20030;-71
2021/06/16 03:34:12;;;;;;;19.52;13.23;;;16.50;99.90;;;;;;4975613;28;20392;-70
2021/06/16 03:36:39;;;;;;;17.60;13.68;;;16.60;99.90;;;;;;4992925;28;20030;-70
2021/06/16 03:39:07;;;;;;;19.60;13.52;;;16.70;99.90;;;;;;4992770;28;20035;-71
2021/06/16 03:41:36;;;;;;;21.27;14.18;;;16.70;99.90;;;;;;4992867;28;20464;-70
2021/06/16 03:44:04;;;;;;;17.90;13.67;;;16.80;99.90;;;;;;4992647;28;20034;-71
2021/06/16 03:46:31;;;;;;;21.08;14.55;;;16.80;99.90;;;;;;4992935;28;20069;-71
2021/06/16 03:48:58;;;;;;;17.25;13.40;;;16.80;99.90;;;;;;4974981;28;20027;-71
2021/06/16 03:51:26;;;;;;;19.50;13.30;;;16.80;99.90;;;;;;4975431;28;20022;-70
2021/06/16 03:53:52;;;;;;;19.73;14.27;;;16.90;99.90;;;;;;4975098;28;20052;-70
2021/06/16 03:56:20;;;;;;;17.25;13.77;;;16.90;99.90;;;;;;4992387;28;20027;-71
2021/06/16 03:58:46;;;;;;;18.85;14.95;;;16.90;99.90;;;;;;4992503;28;20019;-70
2021/06/16 04:01:15;;;;;;;19.75;13.07;;;16.90;99.90;;;;;;4992834;28;20508;-70
2021/06/16 04:03:41;;;;;;;18.73;14.10;;;16.90;99.90;;;;;;4992656;28;20034;-71
2021/06/16 04:06:07;;;;;;;20.92;13.98;;;17.10;99.90;;;;;;4992649;28;20026;-71
2021/06/16 04:08:35;;;;;;;17.55;13.07;;;17.10;99.90;;;;;;4992423;28;20026;-72
2021/06/16 04:11:02;;;;;;;18.88;13.68;;;17.10;99.90;;;;;;4992286;28;20363;-71
2021/06/16 04:13:27;;;;;;;19.10;12.70;;;17.10;99.90;;;;;;4992446;28;20404;-71
2021/06/16 04:15:53;;;;;;;16.42;13.32;;;17.10;99.90;;;;;;4975165;28;20029;-71
2021/06/16 04:18:18;;;;;;;20.42;14.23;;;17.10;99.90;;;;;;4985685;28;20022;-71
2021/06/16 04:20:44;;;;;;;16.48;13.35;;;17.10;99.90;;;;;;4981873;28;20050;-71
2021/06/16 04:23:10;;;;;;;20.98;13.25;;;17.30;99.90;;;;;;4992588;28;20112;-78
2021/06/16 04:25:35;;;;;;;18.50;12.85;;;17.40;99.90;;;;;;4992432;28;20065;-73
2021/06/16 04:28:01;;;;;;;17.90;13.50;;;17.40;99.90;;;;;;4988823;28;20038;-74
2021/06/16 04:30:27;;;;;;;18.52;13.77;;;17.40;99.90;;;;;;4992430;28;20018;-74
2021/06/16 04:32:53;;;;;;;19.48;13.88;;;17.30;99.90;;;;;;4995628;28;20026;-73
2021/06/16 04:35:19;;;;;;;18.20;15.27;;;17.30;99.90;;;;;;4996273;28;20027;-74
2021/06/16 04:37:45;;;;;;;18.42;14.57;;;17.40;99.90;;;;;;4996310;28;20105;-73
2021/06/16 04:40:12;;;;;;;20.65;13.60;;;17.50;99.90;;;;;;4978671;28;20117;-73
2021/06/16 04:42:37;;;;;;;21.20;14.48;;;17.50;99.90;;;;;;4996374;28;20092;-73
2021/06/16 04:45:05;;;;;;;18.17;14.32;;;17.60;99.90;;;;;;4996237;28;20053;-74
2021/06/16 04:47:31;;;;;;;20.25;15.10;;;17.60;99.90;;;;;;5011054;28;20378;-73
2021/06/16 04:49:57;;;;;;;19.60;14.75;;;17.70;99.90;;;;;;4995804;28;20022;-73
2021/06/16 04:52:23;;;;;;;20.75;14.98;;;17.70;99.90;;;;;;4994568;28;20576;-73
2021/06/16 04:54:48;;;;;;;19.08;14.32;;;17.80;99.90;;;;;;4995889;28;20022;-73
2021/06/16 04:57:14;;;;;;;20.92;15.35;;;17.90;99.90;;;;;;4994539;28;20372;-73
2021/06/16 04:59:39;;;;;;;20.33;16.08;;;17.90;99.90;;;;;;4995619;28;20022;-73
2021/06/16 05:02:05;;;;;;;21.20;15.18;;;18.00;99.90;;;;;;4995922;28;20030;-73
2021/06/16 05:04:30;;;;;;;17.88;14.38;;;18.00;99.90;;;;;;4995831;28;20026;-73
2021/06/16 05:06:56;;;;;;;22.15;15.20;;;18.10;99.90;;;;;;4995682;28;20552;-73
2021/06/16 05:09:22;;;;;;;19.05;15.70;;;18.10;99.90;;;;;;4995400;28;20113;-73
2021/06/16 05:11:48;;;;;;;20.77;15.07;;;18.20;99.90;;;;;;4995495;28;20105;-73
2021/06/16 05:14:14;;;;;;;18.55;14.98;;;18.30;99.90;;;;;;4995641;28;20109;-72
2021/06/16 05:16:40;;;;;;;21.45;16.42;;;18.40;99.90;;;;;;4995224;28;20027;-73
2021/06/16 05:19:11;;;;;;;18.42;15.38;;;18.40;99.90;;;;;;4995631;28;20022;-71
2021/06/16 05:21:37;;;;;;;22.02;15.35;;;18.40;99.90;;;;;;4995445;28;20072;-72
2021/06/16 05:24:03;;;;;;;19.88;14.80;;;18.50;99.90;;;;;;4995313;28;20125;-72
2021/06/16 05:26:29;;;;;;;22.00;15.95;;;18.60;99.90;;;;;;4995375;28;20026;-71
2021/06/16 05:28:55;;;;;;;20.40;15.43;;;18.60;99.90;;;;;;4995414;28;20084;-71
2021/06/16 05:31:21;;;;;;;19.88;15.38;;;18.60;99.90;;;;;;4995259;28;20109;-71
2021/06/16 05:33:47;;;;;;;22.52;17.25;;;18.60;99.90;;;;;;4994840;28;20435;-71
2021/06/16 05:36:12;;;;;;;25.70;17.55;;;18.60;99.90;;;;;;4995098;28;20030;-72
2021/06/16 05:38:38;;;;;;;23.13;17.45;;;18.60;99.90;;;;;;4995180;28;20026;-72
2021/06/16 05:41:04;;;;;;;22.65;17.35;;;18.70;99.90;;;;;;4994882;28;20057;-72
2021/06/16 05:43:30;;;;;;;23.08;15.93;;;18.80;99.90;;;;;;4994876;28;20030;-73
2021/06/16 05:45:55;;;;;;;21.80;17.05;;;18.90;99.90;;;;;;4994979;28;20496;-73
2021/06/16 05:48:22;;;;;;;23.77;16.08;;;18.90;99.90;;;;;;4994753;28;20105;-72
2021/06/16 05:50:47;;;;;;;22.35;16.10;;;19.00;99.90;;;;;;4994607;28;20468;-73
2021/06/16 05:53:13;;;;;;;21.35;16.13;;;19.00;99.90;;;;;;4995009;28;20096;-72
2021/06/16 05:55:38;;;;;;;21.98;15.52;;;19.00;99.90;;;;;;4995164;28;20037;-73
2021/06/16 05:58:04;;;;;;;24.63;16.25;;;19.10;99.90;;;;;;4994663;28;20384;-72
2021/06/16 06:00:30;;;;;;;25.90;17.15;;;19.20;99.90;;;;;;4994565;28;20296;-72
2021/06/16 06:02:56;;;;;;;24.42;17.48;;;19.30;99.90;;;;;;4994674;28;20465;-72
2021/06/16 06:05:21;;;;;;;21.48;16.83;;;19.30;99.90;;;;;;4994732;28;20031;-72
2021/06/16 06:07:47;;;;;;;25.48;18.13;;;19.40;99.90;;;;;;4993245;28;20025;-73
2021/06/16 06:10:12;;;;;;;26.83;18.45;;;19.40;99.90;;;;;;4993135;28;20026;-72
2021/06/16 06:12:38;;;;;;;30.15;19.42;;;19.50;99.90;;;;;;4994617;28;20023;-73
2021/06/16 06:15:06;;;;;;;24.10;18.80;;;19.50;99.90;;;;;;4982661;28;20031;-73
2021/06/16 06:17:33;;;;;;;26.40;20.40;;;19.60;99.90;;;;;;4974896;28;20019;-73
2021/06/16 06:19:58;;;;;;;30.83;22.45;;;19.70;99.90;;;;;;4956201;28;20026;-74
2021/06/16 06:22:24;;;;;;;28.08;20.77;;;19.70;99.90;;;;;;4962832;28;20077;-73
2021/06/16 06:24:49;;;;;;;23.52;20.38;;;19.90;99.90;;;;;;4994547;28;20500;-74
2021/06/16 06:27:15;;;;;;;28.30;21.35;;;19.90;99.90;;;;;;4994386;28;20485;-74
2021/06/16 06:29:40;;;;;;;28.58;21.88;;;20.00;99.90;;;;;;4993762;28;20030;-73
2021/06/16 06:32:06;;;;;;;30.77;20.63;;;20.00;99.90;;;;;;4994281;28;20026;-74
2021/06/16 06:34:32;;;;;;;27.80;18.83;;;20.00;99.90;;;;;;4993702;28;20049;-74
2021/06/16 06:36:57;;;;;;;28.30;18.33;;;20.20;99.90;;;;;;4992756;28;20034;-74
2021/06/16 06:39:23;;;;;;;27.13;17.15;;;20.30;99.90;;;;;;4993913;28;20018;-74
2021/06/16 06:41:49;;;;;;;24.95;17.08;;;20.30;99.90;;;;;;4976509;28;20477;-74
2021/06/16 06:44:14;;;;;;;25.02;17.00;;;20.30;99.90;;;;;;4976510;28;20034;-74
2021/06/16 06:46:40;;;;;;;21.38;14.40;;;20.40;99.90;;;;;;4993930;28;20473;-73
2021/06/16 06:49:05;;;;;;;18.55;15.38;;;20.40;99.90;;;;;;4976165;28;20019;-74
2021/06/16 06:51:31;;;;;;;25.38;16.73;;;20.50;99.90;;;;;;4993760;28;20026;-74
2021/06/16 06:53:56;;;;;;;26.45;17.00;;;20.50;99.90;;;;;;4992570;28;20053;-74
2021/06/16 06:56:22;;;;;;;21.70;15.38;;;20.60;99.90;;;;;;4992245;28;20089;-74
2021/06/16 06:58:47;;;;;;;28.75;19.17;;;20.60;99.90;;;;;;4993164;28;20389;-74
2021/06/16 07:01:13;;;;;;;20.13;15.90;;;20.70;99.90;;;;;;4993712;28;20057;-74
2021/06/16 07:03:39;;;;;;;21.15;16.70;;;20.70;99.90;;;;;;4993664;28;20022;-74
2021/06/16 07:06:05;;;;;;;22.38;15.98;;;20.80;99.90;;;;;;4993598;28;20026;-74
2021/06/16 07:08:30;;;;;;;22.38;14.25;;;20.90;99.90;;;;;;4993322;28;20515;-74
2021/06/16 07:10:56;;;;;;;20.70;15.13;;;20.90;99.90;;;;;;4993359;28;20030;-74
2021/06/16 07:13:21;;;;;;;21.80;15.00;;;21.00;99.90;;;;;;4992204;28;20117;-74
2021/06/16 07:15:48;;;;;;;20.80;16.15;;;21.00;99.90;;;;;;4993418;28;20484;-74
2021/06/16 07:18:13;;;;;;;22.75;16.30;;;21.20;99.90;;;;;;4993238;28;20030;-74
2021/06/16 07:20:39;;;;;;;20.27;15.05;;;21.30;99.90;;;;;;4993002;28;20037;-74
2021/06/16 07:23:04;;;;;;;21.30;15.27;;;21.40;99.90;;;;;;4993199;28;20058;-74
2021/06/16 07:25:30;;;;;;;24.35;16.88;;;21.50;99.90;;;;;;4993193;28;20026;-74
2021/06/16 07:27:56;;;;;;;23.73;15.98;;;21.60;99.90;;;;;;4993596;28;20117;-74
2021/06/16 07:30:21;;;;;;;20.48;15.68;;;21.60;99.70;;;;;;4975492;28;20105;-74
2021/06/16 07:32:47;;;;;;;20.23;15.10;;;21.70;99.30;;;;;;4993139;28;20477;-74
2021/06/16 07:35:14;;;;;;;27.30;14.82;;;21.80;99.50;;;;;;4993077;28;20023;-74
2021/06/16 07:37:40;;;;;;;22.70;15.93;;;21.80;99.90;;;;;;4992831;28;20073;-74
2021/06/16 07:40:10;;;;;;;34.83;16.52;;;21.90;99.90;;;;;;4992845;28;20030;-74
2021/06/16 07:42:38;;;;;;;20.58;14.73;;;22.00;99.20;;;;;;4992802;28;20015;-73
2021/06/16 07:45:05;;;;;;;23.48;15.60;;;22.00;99.30;;;;;;4992913;28;20105;-74
2021/06/16 07:47:31;;;;;;;21.38;15.57;;;22.00;99.60;;;;;;4975441;28;20029;-74
2021/06/16 07:49:56;;;;;;;22.70;15.32;;;22.10;99.10;;;;;;4992484;28;20411;-74
2021/06/16 07:52:22;;;;;;;22.35;14.65;;;22.10;99.90;;;;;;4993075;28;20033;-74
2021/06/16 07:54:47;;;;;;;22.83;15.98;;;22.30;99.80;;;;;;4992705;28;20041;-74
2021/06/16 07:57:13;;;;;;;21.60;15.82;;;22.30;99.00;;;;;;4992769;28;20034;-74
2021/06/16 07:59:38;;;;;;;17.65;14.57;;;22.40;98.20;;;;;;4974733;28;20030;-74
2021/06/16 08:02:05;;;;;;;22.05;15.88;;;22.40;99.10;;;;;;4992686;28;20030;-74
2021/06/16 08:04:32;;;;;;;21.70;14.73;;;22.40;98.30;;;;;;4992655;28;20048;-74
2021/06/16 08:06:58;;;;;;;23.10;14.85;;;22.50;98.90;;;;;;4991880;28;20026;-74
2021/06/16 08:09:24;;;;;;;20.35;15.73;;;22.60;98.60;;;;;;4992287;28;20030;-74
2021/06/16 08:11:50;;;;;;;24.75;15.20;;;22.70;98.20;;;;;;4992570;28;20045;-74
2021/06/16 08:14:16;;;;;;;27.35;15.70;;;22.90;98.80;;;;;;4992556;28;20030;-74
2021/06/16 08:16:41;;;;;;;21.90;15.35;;;22.90;97.80;;;;;;4992413;28;20027;-74
2021/06/16 08:19:07;;;;;;;20.48;13.43;;;23.00;98.60;;;;;;4991010;28;20466;-74
2021/06/16 08:21:33;;;;;;;25.33;15.15;;;23.10;98.80;;;;;;4992502;28;20026;-74
2021/06/16 08:23:59;;;;;;;19.38;14.50;;;23.10;98.20;;;;;;4975030;28;20053;-74
2021/06/16 08:26:24;;;;;;;24.38;14.40;;;23.20;99.20;;;;;;4992615;28;20026;-74
2021/06/16 08:28:50;;;;;;;22.25;13.85;;;23.30;98.40;;;;;;4992223;28;20034;-74
2021/06/16 08:31:15;;;;;;;23.50;14.90;;;23.40;98.20;;;;;;4974841;28;20472;-74
2021/06/16 08:33:41;;;;;;;24.95;14.68;;;23.50;98.20;;;;;;4992585;28;20038;-74
2021/06/16 08:36:08;;;;;;;20.30;13.68;;;23.70;99.10;;;;;;4992493;28;20092;-74
2021/06/16 08:38:33;;;;;;;20.13;14.35;;;23.80;98.60;;;;;;4992319;28;20022;-74
2021/06/16 08:41:05;;;;;;;19.17;14.48;;;23.90;98.10;;;;;;4992034;28;20034;-74
2021/06/16 08:43:41;;;;;;;20.58;13.73;;;23.90;97.40;;;;;;4992725;28;20030;-74
2021/06/16 08:46:10;;;;;;;19.60;14.73;;;24.00;97.80;;;;;;4974725;28;20026;-74
2021/06/16 08:48:37;;;;;;;17.25;13.40;;;24.10;98.70;;;;;;4992432;28;20031;-74
2021/06/16 08:51:05;;;;;;;19.63;14.48;;;24.20;98.30;;;;;;4992364;28;20042;-74
2021/06/16 08:53:31;;;;;;;20.90;14.43;;;24.30;98.00;;;;;;4992193;28;20508;-74
2021/06/16 08:55:57;;;;;;;22.60;14.65;;;24.30;98.10;;;;;;4992150;28;20030;-74
2021/06/16 08:58:22;;;;;;;19.10;13.63;;;24.40;96.90;;;;;;4974373;28;20236;-74
2021/06/16 09:00:48;;;;;;;21.95;13.73;;;24.50;96.80;;;;;;4991889;28;20101;-75
2021/06/16 09:03:14;;;;;;;19.27;13.75;;;24.50;97.10;;;;;;4992176;28;20032;-74
2021/06/16 09:05:40;;;;;;;20.58;13.02;;;24.60;97.20;;;;;;4992198;28;20484;-74
2021/06/16 09:08:19;;;;;;;18.63;13.25;;;24.60;96.00;;;;;;4991986;28;20030;-74
2021/06/16 09:10:52;;;;;;;18.88;13.60;;;24.60;96.10;;;;;;4991794;28;20118;-74
2021/06/16 09:13:27;;;;;;;16.58;12.45;;;24.70;98.20;;;;;;4991966;28;20026;-74
2021/06/16 09:15:53;;;;;;;17.80;13.93;;;24.90;96.00;;;;;;4992007;28;20041;-74
2021/06/16 09:18:19;;;;;;;19.13;14.02;;;24.90;96.40;;;;;;4976144;28;20030;-74
2021/06/16 09:20:47;;;;;;;19.52;12.70;;;25.00;96.10;;;;;;4995324;28;20468;-74
2021/06/16 09:23:18;;;;;;;16.10;11.23;;;25.10;97.90;;;;;;4995523;28;20027;-74
2021/06/16 09:26:07;;;;;;;17.23;12.48;;;25.20;96.60;;;;;;4995481;28;20030;-75
2021/06/16 09:28:35;;;;;;;16.38;11.98;;;25.20;95.40;;;;;;4977725;28;20097;-75
2021/06/16 09:31:00;;;;;;;15.80;11.85;;;25.30;95.30;;;;;;4995056;28;20035;-74
2021/06/16 09:33:27;;;;;;;20.27;11.65;;;25.30;94.10;;;;;;4977805;28;20037;-74
2021/06/16 09:35:52;;;;;;;17.25;11.25;;;25.30;94.90;;;;;;4995201;28;20336;-74
2021/06/16 09:38:24;;;;;;;15.15;10.88;;;25.40;94.30;;;;;;4995191;28;20027;-74
2021/06/16 09:40:51;;;;;;;15.13;10.00;;;25.50;94.00;;;;;;4994928;28;20034;-74
2021/06/16 09:43:20;;;;;;;15.45;10.10;;;25.60;95.00;;;;;;4995225;28;20144;-74
2021/06/16 09:45:53;;;;;;;13.95;10.20;;;25.60;95.10;;;;;;4995449;28;20033;-74
2021/06/16 09:48:32;;;;;;;14.07;9.88;;;25.70;92.70;;;;;;4995021;28;20069;-74
2021/06/16 09:51:11;;;;;;;15.30;10.75;;;25.80;92.70;;;;;;4994766;28;20412;-74
2021/06/16 09:53:59;;;;;;;15.25;11.10;;;25.80;92.20;;;;;;4977487;28;20030;-74
2021/06/16 09:56:32;;;;;;;22.35;10.68;;;25.90;93.50;;;;;;4994674;28;20034;-74
2021/06/16 09:58:57;;;;;;;16.98;10.43;;;26.00;93.40;;;;;;4994534;28;20073;-74
2021/06/16 10:01:50;;;;;;;16.02;10.98;;;26.10;94.50;;;;;;4994834;28;20030;-74
2021/06/16 10:04:36;;;;;;;18.58;9.52;;;26.20;94.30;;;;;;4994760;28;20046;-74
2021/06/16 10:07:18;;;;;;;14.60;10.40;;;26.20;92.20;;;;;;4994673;28;20030;-74
2021/06/16 10:10:11;;;;;;;10.43;8.50;;;26.30;93.50;;;;;;4994326;28;20555;-75
2021/06/16 10:12:42;;;;;;;16.13;9.40;;;26.30;91.90;;;;;;4992029;28;20042;-74
2021/06/16 10:15:14;;;;;;;17.55;10.23;;;26.40;91.20;;;;;;4976934;28;20037;-74
2021/06/16 10:17:39;;;;;;;12.40;8.82;;;26.50;91.80;;;;;;4994360;28;20029;-74
2021/06/16 10:20:07;;;;;;;17.30;9.02;;;26.60;90.50;;;;;;4994220;28;20031;-74
2021/06/16 10:22:32;;;;;;;13.10;9.57;;;26.60;91.70;;;;;;4994441;28;20088;-74
2021/06/16 10:24:58;;;;;;;14.23;10.05;;;26.60;90.30;;;;;;4994385;28;20035;-74
2021/06/16 10:27:33;;;;;;;15.63;9.60;;;26.60;91.20;;;;;;4994188;28;20046;-74
2021/06/16 10:30:15;;;;;;;12.77;9.63;;;26.60;91.60;;;;;;4993309;28;20038;-74
2021/06/16 10:32:49;;;;;;;14.32;9.65;;;26.70;93.60;;;;;;4994442;28;20393;-75
2021/06/16 10:35:36;;;;;;;15.48;9.55;;;26.90;90.70;;;;;;4976691;28;20034;-75
2021/06/16 10:38:16;;;;;;;16.85;10.55;;;27.00;91.50;;;;;;4993977;28;20452;-74
2021/06/16 10:40:54;;;;;;;17.70;9.60;;;27.20;92.40;;;;;;4993747;28;20018;-74
2021/06/16 10:43:26;;;;;;;16.30;9.95;;;27.30;92.50;;;;;;4994151;28;20029;-75
2021/06/16 10:45:57;;;;;;;16.00;9.77;;;27.40;93.20;;;;;;4976726;28;20034;-75
2021/06/16 10:48:41;;;;;;;12.55;8.25;;;27.50;91.10;;;;;;4976347;28;20491;-75
2021/06/16 10:51:06;;;;;;;13.07;9.63;;;27.60;93.00;;;;;;4993556;28;20034;-75
2021/06/16 10:53:32;;;;;;;13.85;9.23;;;27.60;90.90;;;;;;4993823;28;20374;-74
2021/06/16 10:55:57;;;;;;;14.65;9.50;;;27.60;91.30;;;;;;4993838;28;20037;-74
2021/06/16 10:58:41;;;;;;;15.02;8.70;;;27.60;89.70;;;;;;4993671;28;20052;-74
2021/06/16 11:01:20;;;;;;;12.70;8.88;;;27.70;91.00;;;;;;4993440;28;20129;-74
2021/06/16 11:03:52;;;;;;;13.55;9.00;;;27.80;91.00;;;;;;4982397;28;20050;-74
2021/06/16 11:06:32;;;;;;;12.55;8.43;;;27.80;89.80;;;;;;4974048;28;20037;-75
2021/06/16 11:09:06;;;;;;;15.27;8.68;;;27.60;90.00;;;;;;4955947;28;20019;-75
2021/06/16 11:11:43;;;;;;;11.90;8.98;;;27.50;88.80;;;;;;4974102;28;20536;-74
2021/06/16 11:14:09;;;;;;;12.88;8.95;;;27.60;90.00;;;;;;4967106;28;20489;-75
2021/06/16 11:16:50;;;;;;;13.27;8.07;;;27.90;91.40;;;;;;4993303;28;20034;-74
2021/06/16 11:19:48;;;;;;;17.30;8.57;;;28.20;90.30;;;;;;4993034;28;20018;-74
2021/06/16 11:22:13;;;;;;;11.50;8.07;;;28.40;90.60;;;;;;4973593;28;20035;-74
2021/06/16 11:25:04;;;;;;;14.70;9.85;;;28.70;90.40;;;;;;4993297;28;20030;-74
2021/06/16 11:28:07;;;;;;;16.13;8.20;;;28.80;86.50;;;;;;4975322;28;20042;-74
2021/06/16 11:30:44;;;;;;;13.73;8.73;;;28.80;85.70;;;;;;4975524;28;20242;-74
2021/06/16 11:33:16;;;;;;;12.68;7.55;;;28.90;90.60;;;;;;4992974;28;20485;-74
2021/06/16 11:35:55;;;;;;;12.70;8.27;;;29.00;89.50;;;;;;4975561;28;20034;-74
2021/06/16 11:38:20;;;;;;;19.73;8.27;;;29.10;89.40;;;;;;4992855;28;20481;-74
2021/06/16 11:41:00;;;;;;;15.07;8.18;;;29.30;86.60;;;;;;4992573;28;20030;-74
2021/06/16 11:43:40;;;;;;;14.50;7.95;;;29.20;85.40;;;;;;4993177;28;20085;-74
2021/06/16 11:46:12;;;;;;;9.77;7.40;;;29.30;86.60;;;;;;4992742;28;20033;-74
2021/06/16 11:48:38;;;;;;;10.15;7.68;;;29.30;83.30;;;;;;4992694;28;20026;-74
2021/06/16 11:51:03;;;;;;;15.23;7.97;;;29.40;88.70;;;;;;4975177;28;20026;-74
2021/06/16 11:53:31;;;;;;;16.83;8.00;;;29.60;89.80;;;;;;4992870;28;20436;-74
2021/06/16 11:56:01;;;;;;;13.57;7.78;;;29.70;85.60;;;;;;4963037;28;20363;-75
2021/06/16 11:58:28;;;;;;;24.08;8.20;;;29.70;84.80;;;;;;4988882;28;20105;-75
2021/06/16 12:01:11;;;;;;;15.93;7.78;;;29.60;83.00;;;;;;4977415;28;20558;-74
2021/06/16 12:03:39;;;;;;;15.35;7.57;;;29.50;86.20;;;;;;4973263;28;20085;-74
2021/06/16 12:06:11;;;;;;;12.88;7.88;;;29.50;85.50;;;;;;4975216;28;20438;-74
2021/06/16 12:08:38;;;;;;;13.88;8.23;;;29.50;83.30;;;;;;4973144;28;20023;-74
2021/06/16 12:11:24;;;;;;;13.32;8.07;;;29.50;84.70;;;;;;4973013;28;20034;-74
2021/06/16 12:13:56;;;;;;;12.73;8.07;;;29.60;86.90;;;;;;4973027;28;20037;-74
2021/06/16 12:16:31;;;;;;;12.65;7.57;;;29.70;84.80;;;;;;4972956;28;20035;-75
2021/06/16 12:19:20;;;;;;;11.27;7.80;;;29.60;82.80;;;;;;4972784;28;20486;-75
2021/06/16 12:21:55;;;;;;;10.98;8.00;;;29.60;82.30;;;;;;4981988;28;20101;-75
2021/06/16 12:24:24;;;;;;;13.90;7.63;;;29.50;84.00;;;;;;4974684;28;20033;-75
2021/06/16 12:27:16;;;;;;;13.18;7.43;;;29.50;83.00;;;;;;4978874;28;20027;-75
2021/06/16 12:29:54;;;;;;;12.65;7.40;;;29.60;82.10;;;;;;4970148;28;20430;-75
2021/06/16 12:35:26;;;;;;;10.82;6.65;;;30.30;80.90;;;;;;4987765;28;20038;-75
2021/06/16 12:37:55;;;;;;;14.98;6.80;;;30.60;79.20;;;;;;4992309;28;20030;-75
2021/06/16 12:40:35;;;;;;;12.05;6.57;;;31.10;78.30;;;;;;4992109;28;20033;-75